Time;durP1;ratioP1;P1;durP2;ratioP2;P2;SDS_P1;SDS_P2;PMS_P1;PMS_P2;Temp;Humidity;BMP_temperature;BMP_pressure;BME280_temperature;BME280_humidity;BME280_pressure;Samples;Min_cycle;Max_cycle;Signal;HPM_P1;HPM_P2
2022/12/04 00:01:28;;;;;;;46.38;26.55;;;4.80;99.90;;;;;;4954821;28;20217;-87
2022/12/04 00:03:57;;;;;;;52.47;31.83;;;4.80;99.90;;;;;;4954579;28;20308;-88
2022/12/04 00:06:28;;;;;;;40.30;28.98;;;4.80;99.90;;;;;;4954966;28;20219;-87
2022/12/04 00:08:57;;;;;;;40.00;31.15;;;4.80;99.90;;;;;;4954687;28;20223;-87
2022/12/04 00:11:28;;;;;;;41.83;31.60;;;4.80;99.90;;;;;;4955038;28;20248;-88
2022/12/04 00:13:58;;;;;;;39.13;29.80;;;4.80;99.90;;;;;;4954499;28;20277;-87
2022/12/04 00:16:34;;;;;;;56.17;32.35;;;4.80;99.90;;;;;;4954267;28;20232;-87
2022/12/04 00:19:03;;;;;;;42.72;31.65;;;4.80;99.90;;;;;;4954413;28;20209;-87
2022/12/04 00:21:32;;;;;;;41.35;30.52;;;4.80;99.90;;;;;;4954614;28;20213;-87
2022/12/04 00:24:01;;;;;;;36.10;28.23;;;4.80;99.90;;;;;;4954168;28;20253;-87
2022/12/04 00:26:31;;;;;;;40.40;30.60;;;4.80;99.90;;;;;;4956433;28;20260;-87
2022/12/04 00:28:59;;;;;;;39.42;32.15;;;4.80;99.90;;;;;;4956424;28;20240;-88
2022/12/04 00:31:30;;;;;;;48.97;31.67;;;4.80;99.90;;;;;;4956733;28;20209;-87
2022/12/04 00:33:59;;;;;;;46.17;35.35;;;4.80;99.90;;;;;;4956519;28;20240;-87
2022/12/04 00:36:30;;;;;;;43.78;32.50;;;4.80;99.90;;;;;;4956245;28;20240;-87
2022/12/04 00:39:01;;;;;;;46.78;31.58;;;4.80;99.90;;;;;;4956114;28;20245;-87
2022/12/04 00:41:30;;;;;;;39.03;30.33;;;4.80;99.90;;;;;;4956294;28;20279;-87
2022/12/04 00:43:59;;;;;;;38.47;30.73;;;4.80;99.90;;;;;;4956124;28;20235;-88
2022/12/04 00:46:28;;;;;;;52.92;31.92;;;4.80;99.90;;;;;;4956327;28;20205;-87
2022/12/04 00:48:58;;;;;;;45.38;30.80;;;4.80;99.90;;;;;;4955786;28;20209;-87
2022/12/04 00:51:26;;;;;;;45.38;32.55;;;4.90;99.90;;;;;;4956239;28;20276;-87
2022/12/04 00:53:55;;;;;;;45.47;32.53;;;4.90;99.90;;;;;;4955293;28;20256;-88
2022/12/04 00:56:26;;;;;;;41.08;31.88;;;4.90;99.90;;;;;;4955718;28;20259;-88
2022/12/04 00:58:56;;;;;;;40.03;30.05;;;4.90;99.90;;;;;;4955831;28;20255;-87
2022/12/04 01:01:25;;;;;;;50.72;29.90;;;4.90;99.90;;;;;;4956149;28;20239;-87
2022/12/04 01:03:55;;;;;;;41.00;30.95;;;4.90;99.90;;;;;;4955934;28;20257;-87
2022/12/04 01:06:24;;;;;;;51.45;31.67;;;4.90;99.90;;;;;;4955868;28;20211;-87
2022/12/04 01:08:55;;;;;;;63.72;31.65;;;4.90;99.90;;;;;;4955450;29;20209;-88
2022/12/04 01:11:25;;;;;;;41.83;32.63;;;4.90;99.90;;;;;;4955708;28;20295;-87
2022/12/04 01:13:54;;;;;;;35.33;28.88;;;4.90;99.90;;;;;;4955513;28;20260;-88
2022/12/04 01:16:25;;;;;;;45.22;31.75;;;4.90;99.90;;;;;;4955382;28;20248;-87
2022/12/04 01:18:54;;;;;;;47.30;33.33;;;4.90;99.90;;;;;;4955708;29;20264;-88
2022/12/04 01:21:23;;;;;;;47.58;33.17;;;4.90;99.90;;;;;;4955459;28;20268;-88
2022/12/04 01:23:51;;;;;;;48.85;32.00;;;4.90;99.90;;;;;;4955310;28;20226;-87
2022/12/04 01:26:20;;;;;;;40.60;30.92;;;5.00;99.90;;;;;;4955353;28;20304;-88
2022/12/04 01:28:49;;;;;;;46.30;32.25;;;4.90;99.90;;;;;;4955142;28;20217;-87
2022/12/04 01:31:19;;;;;;;47.30;34.75;;;4.90;99.90;;;;;;4955513;28;20205;-87
2022/12/04 01:33:50;;;;;;;50.58;32.80;;;4.90;99.90;;;;;;4955163;28;20237;-87
2022/12/04 01:36:21;;;;;;;64.03;34.30;;;4.90;99.90;;;;;;4954970;28;20225;-87
2022/12/04 01:38:50;;;;;;;50.55;32.85;;;5.00;99.90;;;;;;4954904;28;20216;-87
2022/12/04 01:41:22;;;;;;;44.95;31.95;;;5.00;99.90;;;;;;4955328;28;20213;-87
2022/12/04 01:44:16;;;;;;;40.40;30.83;;;4.90;99.90;;;;;;4954981;28;20233;-87
2022/12/04 01:46:46;;;;;;;44.60;31.73;;;4.90;99.90;;;;;;4955145;29;20223;-87
2022/12/04 01:49:19;;;;;;;34.63;26.95;;;5.00;99.90;;;;;;4955588;28;20300;-87
2022/12/04 01:51:51;;;;;;;37.33;27.92;;;5.00;99.90;;;;;;4955332;28;20208;-86
2022/12/04 01:54:27;;;;;;;33.47;25.52;;;4.90;99.90;;;;;;4955329;28;20260;-88
2022/12/04 01:57:01;;;;;;;34.38;27.10;;;4.90;99.90;;;;;;4954467;28;20257;-87
2022/12/04 01:59:35;;;;;;;40.65;27.83;;;4.90;99.90;;;;;;4954866;28;20232;-86
2022/12/04 02:02:07;;;;;;;32.55;25.33;;;5.00;99.90;;;;;;4955082;28;20263;-86
2022/12/04 02:04:38;;;;;;;37.50;25.63;;;4.90;99.90;;;;;;4954466;28;20229;-86
2022/12/04 02:07:06;;;;;;;33.85;24.38;;;4.90;99.90;;;;;;4954650;28;20205;-86
2022/12/04 02:09:38;;;;;;;30.88;22.70;;;4.90;99.90;;;;;;4954844;28;20217;-87
2022/12/04 02:12:15;;;;;;;36.05;22.80;;;4.90;99.90;;;;;;4954813;28;20205;-87
2022/12/04 02:14:54;;;;;;;31.80;24.95;;;4.90;99.90;;;;;;4954970;28;20252;-87
2022/12/04 02:17:27;;;;;;;29.77;23.83;;;4.90;99.90;;;;;;4954909;28;20221;-87
2022/12/04 02:20:14;;;;;;;30.95;23.58;;;4.90;99.90;;;;;;4955193;28;20239;-88
2022/12/04 02:23:03;;;;;;;30.90;23.50;;;4.90;99.90;;;;;;4954640;28;20212;-86
2022/12/04 02:25:44;;;;;;;32.90;24.23;;;4.90;99.90;;;;;;4954693;28;20223;-86
2022/12/04 02:28:21;;;;;;;39.10;26.38;;;4.90;99.90;;;;;;4954388;28;20204;-87
2022/12/04 02:30:53;;;;;;;33.47;24.40;;;4.90;99.90;;;;;;4954842;28;20215;-87
2022/12/04 02:33:25;;;;;;;33.92;24.30;;;4.90;99.90;;;;;;4954546;28;20299;-88
2022/12/04 02:36:01;;;;;;;40.10;26.75;;;4.90;99.90;;;;;;4954209;28;20237;-86
2022/12/04 02:38:35;;;;;;;29.65;25.42;;;4.90;99.90;;;;;;4954518;29;20209;-87
2022/12/04 02:41:10;;;;;;;48.20;27.08;;;4.90;99.90;;;;;;4954640;28;20209;-86
2022/12/04 02:43:44;;;;;;;42.20;27.90;;;4.90;99.90;;;;;;4954950;28;20291;-87
2022/12/04 02:46:18;;;;;;;60.70;28.10;;;4.90;99.90;;;;;;4954645;28;20267;-87
2022/12/04 02:48:50;;;;;;;35.90;27.20;;;4.90;99.90;;;;;;4954297;29;20264;-87
2022/12/04 02:51:22;;;;;;;35.42;26.58;;;4.90;99.90;;;;;;4954716;28;20223;-87
2022/12/04 02:53:53;;;;;;;37.88;27.92;;;4.90;99.90;;;;;;4954509;28;20233;-87
2022/12/04 02:56:26;;;;;;;38.63;28.92;;;4.90;99.90;;;;;;4954779;28;20263;-87
2022/12/04 02:58:59;;;;;;;42.28;30.27;;;4.90;99.90;;;;;;4954826;28;20296;-87
2022/12/04 03:01:31;;;;;;;47.40;32.92;;;4.90;99.90;;;;;;4954064;28;20287;-88
2022/12/04 03:04:04;;;;;;;44.08;33.17;;;4.90;99.90;;;;;;4954541;28;20240;-87
2022/12/04 03:06:36;;;;;;;45.20;31.98;;;4.90;99.90;;;;;;4954367;28;20217;-87
2022/12/04 03:09:11;;;;;;;39.22;33.15;;;4.90;99.90;;;;;;4954268;28;20213;-87
2022/12/04 03:11:44;;;;;;;39.55;32.72;;;4.90;99.90;;;;;;4954606;29;20208;-87
2022/12/04 03:14:18;;;;;;;48.38;34.25;;;4.90;99.90;;;;;;4954270;28;20289;-86
2022/12/04 03:16:48;;;;;;;41.92;33.22;;;4.90;99.90;;;;;;4955034;28;20267;-87
2022/12/04 03:19:23;;;;;;;47.67;34.63;;;4.90;99.90;;;;;;4957476;28;20228;-87
2022/12/04 03:21:54;;;;;;;61.38;36.00;;;4.90;99.90;;;;;;4957612;28;20240;-88
2022/12/04 03:24:27;;;;;;;44.25;33.72;;;4.90;99.90;;;;;;4957552;28;20288;-87
2022/12/04 03:26:59;;;;;;;50.85;35.85;;;4.90;99.90;;;;;;4957636;28;20208;-87
2022/12/04 03:29:33;;;;;;;51.55;35.80;;;4.90;99.90;;;;;;4958081;28;20209;-87
2022/12/04 03:32:10;;;;;;;46.50;32.30;;;4.90;99.90;;;;;;4957324;28;20209;-87
2022/12/04 03:34:44;;;;;;;42.58;32.97;;;5.00;99.90;;;;;;4957082;28;20233;-87
2022/12/04 03:37:17;;;;;;;40.63;32.38;;;5.00;99.90;;;;;;4957660;28;20225;-87
2022/12/04 03:39:55;;;;;;;39.10;33.70;;;5.00;99.90;;;;;;4957361;29;20209;-86
2022/12/04 03:42:27;;;;;;;37.60;32.22;;;5.00;99.90;;;;;;4957228;28;20208;-87
2022/12/04 03:45:02;;;;;;;39.78;32.83;;;5.00;99.90;;;;;;4957303;28;20209;-87
2022/12/04 03:47:37;;;;;;;32.65;29.08;;;5.00;99.90;;;;;;4957097;28;20235;-87
2022/12/04 03:50:11;;;;;;;49.85;32.92;;;5.00;99.90;;;;;;4957313;28;20209;-86
2022/12/04 03:52:48;;;;;;;48.15;34.83;;;5.00;99.90;;;;;;4957052;28;20201;-87
2022/12/04 03:55:25;;;;;;;49.95;34.80;;;5.00;99.90;;;;;;4956917;28;20213;-87
2022/12/04 03:57:59;;;;;;;45.08;32.35;;;5.00;99.90;;;;;;4956830;28;20232;-87
2022/12/04 04:00:32;;;;;;;54.97;31.70;;;5.10;99.90;;;;;;4957163;28;20271;-87
2022/12/04 04:03:07;;;;;;;41.80;30.95;;;5.10;99.90;;;;;;4956993;28;20319;-87
2022/12/04 04:05:38;;;;;;;37.95;28.80;;;5.10;99.90;;;;;;4956927;28;20212;-87
2022/12/04 04:08:32;;;;;;;47.55;31.15;;;5.10;99.90;;;;;;4956960;28;20260;-88
2022/12/04 04:11:12;;;;;;;37.58;30.67;;;5.10;99.90;;;;;;4956898;28;20209;-87
2022/12/04 04:25:02;;;;;;;34.13;29.35;;;5.20;99.90;;;;;;4956233;28;20300;-87
2022/12/04 04:27:30;;;;;;;45.58;32.08;;;5.20;99.90;;;;;;4956094;28;20208;-87
2022/12/04 04:29:59;;;;;;;44.80;32.88;;;5.20;99.90;;;;;;4956890;28;20205;-86
2022/12/04 04:32:35;;;;;;;44.70;34.75;;;5.20;99.90;;;;;;4956416;28;20292;-87
2022/12/04 04:35:11;;;;;;;42.35;34.10;;;5.20;99.90;;;;;;4956265;28;20318;-87
2022/12/04 04:37:53;;;;;;;35.08;29.95;;;5.20;99.90;;;;;;4956043;28;20288;-87
2022/12/04 04:40:27;;;;;;;47.63;32.15;;;5.10;99.90;;;;;;4956352;28;20280;-87
2022/12/04 04:43:03;;;;;;;43.83;32.97;;;5.20;99.90;;;;;;4956164;28;20315;-86
2022/12/04 04:45:36;;;;;;;37.35;32.70;;;5.20;99.90;;;;;;4956354;28;20251;-87
2022/12/04 04:48:10;;;;;;;47.45;35.47;;;5.10;99.90;;;;;;4955889;28;20229;-86
2022/12/04 04:50:39;;;;;;;42.35;33.92;;;5.10;99.90;;;;;;4956002;28;20213;-87
2022/12/04 04:53:13;;;;;;;48.60;36.00;;;5.10;99.90;;;;;;4955735;28;20240;-87
2022/12/04 04:55:42;;;;;;;39.88;33.58;;;5.10;99.90;;;;;;4956222;28;20209;-87
2022/12/04 04:58:12;;;;;;;39.30;34.72;;;5.10;99.90;;;;;;4955693;28;20227;-87
2022/12/04 05:00:43;;;;;;;42.08;35.05;;;5.00;99.90;;;;;;4955709;28;20209;-87
2022/12/04 05:03:13;;;;;;;42.22;34.03;;;5.00;99.90;;;;;;4955805;28;20320;-87
2022/12/04 05:05:42;;;;;;;41.80;34.53;;;5.00;99.90;;;;;;4955761;28;20198;-87
2022/12/04 05:08:10;;;;;;;40.42;32.95;;;5.00;99.90;;;;;;4955612;28;20212;-87
2022/12/04 05:10:39;;;;;;;34.95;31.20;;;5.10;99.90;;;;;;4955909;28;20256;-86
2022/12/04 05:13:07;;;;;;;40.25;34.72;;;5.00;99.90;;;;;;4955533;28;20229;-87
2022/12/04 05:15:36;;;;;;;42.17;34.22;;;5.00;99.90;;;;;;4955643;28;20217;-87
2022/12/04 05:18:04;;;;;;;49.10;35.53;;;5.00;99.90;;;;;;4955484;28;20221;-87
2022/12/04 05:20:36;;;;;;;41.17;33.33;;;5.00;99.90;;;;;;4955688;28;20236;-86
2022/12/04 05:23:06;;;;;;;37.10;32.20;;;5.00;99.90;;;;;;4955533;28;20259;-87
2022/12/04 05:25:34;;;;;;;39.45;31.88;;;4.90;99.90;;;;;;4955669;28;20239;-87
2022/12/04 05:28:03;;;;;;;45.15;35.65;;;4.90;99.90;;;;;;4955252;29;20288;-87
2022/12/04 05:30:32;;;;;;;43.13;34.92;;;4.90;99.90;;;;;;4955359;28;20300;-87
2022/12/04 05:33:00;;;;;;;41.45;31.60;;;4.90;99.90;;;;;;4955174;28;20257;-87
2022/12/04 05:35:29;;;;;;;40.83;33.72;;;4.90;99.90;;;;;;4955582;28;20300;-87
2022/12/04 05:37:59;;;;;;;37.13;32.40;;;4.90;99.90;;;;;;4955135;28;20299;-87
2022/12/04 05:40:27;;;;;;;41.75;35.22;;;4.80;99.90;;;;;;4954703;28;20252;-87
2022/12/04 05:42:55;;;;;;;37.90;32.00;;;4.80;99.90;;;;;;4955092;28;20233;-87
2022/12/04 05:45:23;;;;;;;40.80;32.95;;;4.80;99.90;;;;;;4955257;28;20303;-87
2022/12/04 05:47:52;;;;;;;50.55;36.38;;;4.80;99.90;;;;;;4954990;28;20291;-86
2022/12/04 05:50:20;;;;;;;41.58;33.88;;;4.80;99.90;;;;;;4955227;28;20205;-87
2022/12/04 05:52:48;;;;;;;37.60;32.28;;;4.80;99.90;;;;;;4955193;28;20241;-87
2022/12/04 05:55:18;;;;;;;39.30;35.05;;;4.80;99.90;;;;;;4954758;28;20251;-87
2022/12/04 05:57:47;;;;;;;39.00;32.78;;;4.80;99.90;;;;;;4954740;28;20224;-87
2022/12/04 06:00:16;;;;;;;42.00;32.50;;;4.70;99.90;;;;;;4954968;28;20272;-88
2022/12/04 06:02:45;;;;;;;44.47;35.03;;;4.80;99.90;;;;;;4954937;28;20209;-87
2022/12/04 06:05:14;;;;;;;36.25;32.17;;;4.80;99.90;;;;;;4954362;28;20215;-87
2022/12/04 06:07:42;;;;;;;47.13;35.70;;;4.80;99.90;;;;;;4954479;28;20244;-87
2022/12/04 06:10:10;;;;;;;43.00;33.35;;;4.70;99.90;;;;;;4955001;28;20245;-88
2022/12/04 06:12:40;;;;;;;43.63;34.60;;;4.80;99.90;;;;;;4954528;28;20268;-88
2022/12/04 06:15:09;;;;;;;46.03;37.22;;;4.80;99.90;;;;;;4954853;28;20252;-88
2022/12/04 06:17:38;;;;;;;40.08;33.42;;;4.80;99.90;;;;;;4954338;28;20255;-87
2022/12/04 06:20:08;;;;;;;40.47;33.65;;;4.80;99.90;;;;;;4954437;28;20416;-88
2022/12/04 06:22:39;;;;;;;51.13;37.22;;;4.70;99.90;;;;;;4954632;28;20304;-88
2022/12/04 06:25:09;;;;;;;44.50;35.10;;;4.70;99.90;;;;;;4954505;29;20213;-87
2022/12/04 06:27:37;;;;;;;47.75;33.95;;;4.70;99.90;;;;;;4954537;28;20213;-88
2022/12/04 06:30:08;;;;;;;52.47;36.20;;;4.70;99.90;;;;;;4954733;29;20221;-87
2022/12/04 06:32:37;;;;;;;43.65;35.13;;;4.60;99.90;;;;;;4954271;28;20308;-88
2022/12/04 06:35:06;;;;;;;39.30;35.13;;;4.60;99.90;;;;;;4954783;28;20220;-88
2022/12/04 06:37:35;;;;;;;48.05;36.83;;;4.60;99.90;;;;;;4954569;28;20236;-88
2022/12/04 06:40:04;;;;;;;47.30;33.83;;;4.60;99.90;;;;;;4954155;28;20315;-88
2022/12/04 06:42:32;;;;;;;50.78;37.05;;;4.60;99.90;;;;;;4954428;28;20304;-88
2022/12/04 06:45:00;;;;;;;45.53;35.67;;;4.50;99.90;;;;;;4954677;28;20296;-88
2022/12/04 06:47:30;;;;;;;45.33;34.88;;;4.60;99.90;;;;;;4954585;28;20209;-88
2022/12/04 06:49:58;;;;;;;40.78;33.53;;;4.60;99.90;;;;;;4954731;28;20247;-87
2022/12/04 06:52:27;;;;;;;37.42;32.42;;;4.50;99.90;;;;;;4956336;28;20241;-87
2022/12/04 06:54:55;;;;;;;52.20;36.42;;;4.60;99.90;;;;;;4958318;28;20209;-87
2022/12/04 06:57:24;;;;;;;39.33;33.30;;;4.50;99.90;;;;;;4957966;28;20210;-88
2022/12/04 06:59:52;;;;;;;44.33;33.30;;;4.50;99.90;;;;;;4957686;28;20256;-87
2022/12/04 07:02:21;;;;;;;41.38;34.28;;;4.50;99.90;;;;;;4958073;28;20256;-87
2022/12/04 07:04:56;;;;;;;39.05;33.63;;;4.50;99.90;;;;;;4957955;28;20229;-87
2022/12/04 07:07:24;;;;;;;44.35;34.60;;;4.50;99.90;;;;;;4957889;28;20275;-88
2022/12/04 07:09:52;;;;;;;38.78;31.98;;;4.50;99.90;;;;;;4957966;28;20197;-88
2022/12/04 07:12:21;;;;;;;44.55;33.97;;;4.50;99.90;;;;;;4957995;28;20205;-88
2022/12/04 07:14:50;;;;;;;49.78;35.85;;;4.60;99.90;;;;;;4957599;28;20269;-87
2022/12/04 07:17:18;;;;;;;47.95;34.83;;;4.50;99.90;;;;;;4957288;28;20240;-88
2022/12/04 07:19:47;;;;;;;68.25;36.92;;;4.60;99.90;;;;;;4957328;28;20221;-87
2022/12/04 07:22:16;;;;;;;40.92;34.72;;;4.50;99.90;;;;;;4957645;28;20268;-87
2022/12/04 07:24:45;;;;;;;51.40;34.70;;;4.50;99.90;;;;;;4957353;28;20239;-87
2022/12/04 07:27:13;;;;;;;42.85;34.47;;;4.50;99.90;;;;;;4957660;28;20270;-87
2022/12/04 07:29:42;;;;;;;39.33;32.63;;;4.50;99.90;;;;;;4957667;28;20288;-87
2022/12/04 07:32:10;;;;;;;38.47;30.85;;;4.50;99.90;;;;;;4957364;28;20205;-87
2022/12/04 07:34:39;;;;;;;51.15;34.55;;;4.40;99.90;;;;;;4957361;28;20292;-87
2022/12/04 07:37:07;;;;;;;44.75;31.27;;;4.40;99.90;;;;;;4957508;28;20229;-87
2022/12/04 07:39:37;;;;;;;43.13;33.25;;;4.40;99.90;;;;;;4957369;28;20252;-87
2022/12/04 07:42:06;;;;;;;37.90;33.70;;;4.40;99.90;;;;;;4957452;28;20205;-87
2022/12/04 07:44:34;;;;;;;40.38;32.65;;;4.40;99.90;;;;;;4957191;28;20221;-86
2022/12/04 07:47:02;;;;;;;41.78;32.90;;;4.40;99.90;;;;;;4957099;28;20304;-87
2022/12/04 07:49:31;;;;;;;38.70;31.67;;;4.40;99.90;;;;;;4957284;28;20255;-87
2022/12/04 07:51:59;;;;;;;42.28;30.60;;;4.40;99.90;;;;;;4957316;28;20300;-87
2022/12/04 07:54:28;;;;;;;40.00;29.88;;;4.40;99.90;;;;;;4957228;28;20283;-87
2022/12/04 07:56:58;;;;;;;42.65;31.42;;;4.30;99.90;;;;;;4956963;28;20264;-86
2022/12/04 07:59:26;;;;;;;36.60;30.50;;;4.30;99.90;;;;;;4956738;28;20217;-87
2022/12/04 08:01:55;;;;;;;39.25;29.55;;;4.20;99.90;;;;;;4957482;28;20249;-88
2022/12/04 08:04:23;;;;;;;33.10;29.05;;;4.20;99.90;;;;;;4957167;28;20233;-87
2022/12/04 08:06:52;;;;;;;50.58;33.05;;;4.20;99.90;;;;;;4956336;28;20205;-87
2022/12/04 08:09:20;;;;;;;45.13;32.30;;;4.30;99.90;;;;;;4957025;28;20206;-87
2022/12/04 08:11:49;;;;;;;39.88;30.23;;;4.30;99.90;;;;;;4956772;28;20268;-87
2022/12/04 08:14:21;;;;;;;41.13;31.55;;;4.30;99.90;;;;;;4956941;28;20257;-88
2022/12/04 08:16:50;;;;;;;47.33;33.45;;;4.20;99.90;;;;;;4956923;28;20205;-88
2022/12/04 08:19:20;;;;;;;41.50;31.85;;;4.30;99.90;;;;;;4956720;28;20217;-87
2022/12/04 08:21:48;;;;;;;42.58;30.30;;;4.30;99.90;;;;;;4956539;28;20245;-87
2022/12/04 08:24:17;;;;;;;42.17;32.40;;;4.20;99.90;;;;;;4956594;28;20261;-87
2022/12/04 08:26:45;;;;;;;47.45;31.08;;;4.20;99.90;;;;;;4956807;28;20208;-87
2022/12/04 08:29:24;;;;;;;46.58;30.95;;;4.20;99.90;;;;;;4956987;28;20197;-87
2022/12/04 08:31:54;;;;;;;35.35;29.75;;;4.10;99.90;;;;;;4956214;28;20213;-87
2022/12/04 08:34:23;;;;;;;56.60;30.15;;;4.20;99.90;;;;;;4956281;28;20237;-87
2022/12/04 08:36:52;;;;;;;45.75;31.48;;;4.20;99.90;;;;;;4956191;28;20296;-87
2022/12/04 08:39:20;;;;;;;39.75;29.08;;;4.20;99.90;;;;;;4956496;28;20268;-88
2022/12/04 08:41:48;;;;;;;39.60;29.73;;;4.20;99.90;;;;;;4956361;28;20243;-87
2022/12/04 08:44:24;;;;;;;50.28;31.67;;;4.20;99.90;;;;;;4956231;28;20243;-87
2022/12/04 08:46:54;;;;;;;50.78;30.60;;;4.20;99.90;;;;;;4955708;28;20214;-87
2022/12/04 08:49:22;;;;;;;42.67;28.00;;;4.20;99.90;;;;;;4956120;28;20277;-87
2022/12/04 08:51:50;;;;;;;55.60;30.33;;;4.20;99.90;;;;;;4955930;28;20213;-87
2022/12/04 08:54:18;;;;;;;32.35;24.77;;;4.20;99.90;;;;;;4956507;28;20261;-88
2022/12/04 08:56:47;;;;;;;40.75;27.45;;;4.20;99.90;;;;;;4955776;28;20229;-87
2022/12/04 08:59:15;;;;;;;72.88;28.52;;;4.20;99.90;;;;;;4955902;28;20213;-87
2022/12/04 09:01:43;;;;;;;42.08;30.10;;;4.10;99.90;;;;;;4955997;28;20276;-87
2022/12/04 09:04:13;;;;;;;47.35;30.85;;;4.10;99.90;;;;;;4955677;28;20315;-88
2022/12/04 09:06:42;;;;;;;51.40;30.67;;;4.10;99.90;;;;;;4955657;28;20209;-87
2022/12/04 09:09:11;;;;;;;36.33;28.13;;;4.10;99.90;;;;;;4955718;28;20201;-87
2022/12/04 09:11:40;;;;;;;43.50;28.23;;;4.10;99.90;;;;;;4955627;28;20213;-87
2022/12/04 09:14:08;;;;;;;39.65;28.30;;;4.10;99.90;;;;;;4955225;28;20248;-87
2022/12/04 09:16:36;;;;;;;49.45;29.05;;;4.10;99.90;;;;;;4955768;28;20201;-87
2022/12/04 09:19:05;;;;;;;46.35;33.17;;;4.10;99.90;;;;;;4955530;28;20236;-87
2022/12/04 09:21:35;;;;;;;39.05;28.83;;;4.00;99.90;;;;;;4955542;28;20295;-88
2022/12/04 09:24:04;;;;;;;62.58;31.70;;;4.00;99.90;;;;;;4955460;28;20221;-87
2022/12/04 09:26:33;;;;;;;35.95;27.38;;;4.00;99.90;;;;;;4955266;28;20273;-88
2022/12/04 09:29:03;;;;;;;53.25;30.80;;;4.00;99.90;;;;;;4955082;28;20268;-88
2022/12/04 09:31:32;;;;;;;51.38;29.33;;;4.00;99.90;;;;;;4955540;28;20205;-87
2022/12/04 09:34:01;;;;;;;42.88;29.58;;;4.00;99.90;;;;;;4955520;28;20320;-87
2022/12/04 09:36:30;;;;;;;45.13;31.27;;;4.00;99.90;;;;;;4954778;28;20264;-87
2022/12/04 09:39:00;;;;;;;39.75;30.23;;;4.00;99.90;;;;;;4954929;28;20221;-87
2022/12/04 09:41:54;;;;;;;41.47;30.00;;;4.00;99.90;;;;;;4955215;28;20349;-87
2022/12/04 09:44:27;;;;;;;66.63;31.83;;;4.00;99.90;;;;;;4950351;29;20233;-87
2022/12/04 09:47:00;;;;;;;52.95;31.05;;;4.00;99.90;;;;;;4955072;29;20241;-87
2022/12/04 09:49:36;;;;;;;44.50;31.63;;;4.00;99.90;;;;;;4955012;28;20217;-88
2022/12/04 09:52:09;;;;;;;42.47;29.27;;;4.00;99.90;;;;;;4955184;28;20241;-88
2022/12/04 09:54:42;;;;;;;46.53;30.67;;;4.00;99.90;;;;;;4954997;28;20316;-87
2022/12/04 09:57:16;;;;;;;41.15;30.08;;;4.00;99.90;;;;;;4954484;28;20237;-88
2022/12/04 09:59:46;;;;;;;48.53;29.65;;;4.00;99.90;;;;;;4955194;28;20247;-87
2022/12/04 10:02:31;;;;;;;68.35;33.33;;;4.10;99.90;;;;;;4954880;28;20272;-87
2022/12/04 10:05:01;;;;;;;43.10;30.52;;;4.10;99.90;;;;;;4955166;28;20263;-88
2022/12/04 10:07:33;;;;;;;65.97;33.35;;;4.10;99.90;;;;;;4954622;28;20237;-88
2022/12/04 10:10:08;;;;;;;41.88;30.88;;;4.10;99.90;;;;;;4954423;28;20201;-87
2022/12/04 10:12:47;;;;;;;44.20;30.25;;;4.10;99.90;;;;;;4954970;28;20267;-88
2022/12/04 10:15:29;;;;;;;43.20;30.55;;;4.10;99.90;;;;;;4954949;28;20295;-88
2022/12/04 10:18:20;;;;;;;50.33;33.65;;;4.00;99.90;;;;;;4954678;28;20218;-88
2022/12/04 10:21:04;;;;;;;46.63;33.70;;;4.00;99.90;;;;;;4954579;28;20233;-88
2022/12/04 10:23:46;;;;;;;45.30;33.80;;;4.00;99.90;;;;;;4954733;28;20267;-88
2022/12/04 10:26:17;;;;;;;37.65;30.13;;;4.00;99.90;;;;;;4956614;28;20220;-88
2022/12/04 10:28:48;;;;;;;43.92;27.63;;;4.00;99.90;;;;;;4958631;28;20215;-87
2022/12/04 10:31:23;;;;;;;39.67;29.98;;;4.00;99.90;;;;;;4958677;28;20211;-87
2022/12/04 10:33:58;;;;;;;35.50;27.77;;;4.00;99.90;;;;;;4958604;28;20233;-87
2022/12/04 10:36:32;;;;;;;46.28;31.27;;;4.00;99.90;;;;;;4958690;28;20201;-88
2022/12/04 10:39:10;;;;;;;43.70;30.95;;;4.00;99.90;;;;;;4958399;28;20209;-88
2022/12/04 10:41:45;;;;;;;37.70;28.73;;;4.00;99.90;;;;;;4958379;29;20260;-88
2022/12/04 10:44:15;;;;;;;38.95;26.35;;;4.10;99.90;;;;;;4958360;28;20243;-86
2022/12/04 10:46:44;;;;;;;33.90;26.45;;;4.10;99.90;;;;;;4957985;28;20252;-87
2022/12/04 10:49:18;;;;;;;29.38;25.50;;;4.10;99.90;;;;;;4958177;28;20296;-87
2022/12/04 10:51:47;;;;;;;33.10;24.75;;;4.10;99.90;;;;;;4958610;29;20209;-88
2022/12/04 10:54:21;;;;;;;33.35;24.75;;;4.20;99.90;;;;;;4958324;28;20257;-88
2022/12/04 10:56:57;;;;;;;32.95;25.85;;;4.20;99.90;;;;;;4958184;28;20243;-87
2022/12/04 10:59:26;;;;;;;28.80;24.40;;;4.20;99.90;;;;;;4957771;28;20244;-88
2022/12/04 11:02:00;;;;;;;39.05;25.30;;;4.20;99.90;;;;;;4958056;28;20232;-87
2022/12/04 11:04:35;;;;;;;41.50;23.42;;;4.30;99.90;;;;;;4958111;28;20228;-87
2022/12/04 11:07:07;;;;;;;30.50;23.65;;;4.30;99.90;;;;;;4957585;28;20209;-87
2022/12/04 11:09:36;;;;;;;31.27;21.60;;;4.30;99.90;;;;;;4958080;28;20216;-87
2022/12/04 11:12:09;;;;;;;26.00;20.52;;;4.30;99.90;;;;;;4957629;28;20201;-88
2022/12/04 11:14:38;;;;;;;22.30;19.55;;;4.30;99.90;;;;;;4957861;28;20233;-87
2022/12/04 11:17:17;;;;;;;23.05;19.67;;;4.30;99.90;;;;;;4957822;28;20212;-87
2022/12/04 11:19:46;;;;;;;21.80;18.10;;;4.30;99.90;;;;;;4958326;29;20205;-88
2022/12/04 11:22:17;;;;;;;22.30;17.75;;;4.30;99.90;;;;;;4957782;28;20268;-88
2022/12/04 11:24:53;;;;;;;25.88;21.00;;;4.30;99.90;;;;;;4957682;28;20233;-87
2022/12/04 11:27:27;;;;;;;27.02;20.23;;;4.30;99.90;;;;;;4957596;28;20280;-87
2022/12/04 11:29:56;;;;;;;22.35;19.00;;;4.30;99.90;;;;;;4957855;28;20209;-87
2022/12/04 11:32:29;;;;;;;19.27;17.17;;;4.30;99.90;;;;;;4958204;28;20197;-88
2022/12/04 11:35:01;;;;;;;16.73;14.90;;;4.30;99.90;;;;;;4957603;28;20248;-87
2022/12/04 11:37:33;;;;;;;18.92;16.52;;;4.20;99.90;;;;;;4956362;28;20207;-88
2022/12/04 11:40:16;;;;;;;20.27;16.25;;;4.20;99.90;;;;;;4957543;28;20213;-88
2022/12/04 11:42:59;;;;;;;28.17;18.15;;;4.20;99.90;;;;;;4957133;28;20233;-88
2022/12/04 11:45:27;;;;;;;23.63;17.85;;;4.20;99.90;;;;;;4957312;28;20295;-87
2022/12/04 11:47:57;;;;;;;23.73;18.02;;;4.10;99.90;;;;;;4957009;28;20304;-88
2022/12/04 11:50:35;;;;;;;18.75;16.17;;;4.20;99.90;;;;;;4957459;28;20209;-87
2022/12/04 11:53:15;;;;;;;17.75;15.50;;;4.20;99.90;;;;;;4957036;28;20239;-87
2022/12/04 11:55:57;;;;;;;21.08;16.42;;;4.10;99.90;;;;;;4957504;28;20228;-87
2022/12/04 11:58:58;;;;;;;21.05;16.08;;;4.10;99.90;;;;;;4957132;28;20213;-87
2022/12/04 12:01:39;;;;;;;20.70;16.95;;;4.10;99.90;;;;;;4956746;29;20225;-87
2022/12/04 12:04:43;;;;;;;16.67;14.70;;;4.10;99.90;;;;;;4957153;28;20316;-88
2022/12/04 12:07:24;;;;;;;17.63;14.68;;;4.10;99.90;;;;;;4942135;28;20300;-88
2022/12/04 12:10:03;;;;;;;15.60;14.02;;;4.10;99.90;;;;;;4957021;28;20424;-88
2022/12/04 12:12:43;;;;;;;22.90;16.67;;;4.10;99.90;;;;;;4956789;28;20256;-88
2022/12/04 12:15:24;;;;;;;21.10;16.33;;;4.10;99.90;;;;;;4957254;28;20385;-87
2022/12/04 12:18:08;;;;;;;18.67;16.25;;;4.10;99.90;;;;;;4956956;28;20260;-87
2022/12/04 12:20:41;;;;;;;16.52;14.60;;;4.10;99.90;;;;;;4956912;28;20236;-87
2022/12/04 12:23:23;;;;;;;25.48;18.60;;;4.20;99.90;;;;;;4956400;28;20245;-88
2022/12/04 12:25:59;;;;;;;20.10;16.55;;;4.20;99.90;;;;;;4956452;29;20237;-88
2022/12/04 12:28:44;;;;;;;19.75;16.27;;;4.20;99.90;;;;;;4956214;28;20241;-88
2022/12/04 12:31:28;;;;;;;21.20;15.32;;;4.20;99.90;;;;;;4956550;28;20204;-87
2022/12/04 12:34:03;;;;;;;20.15;17.83;;;4.20;99.90;;;;;;4956150;28;20263;-89
2022/12/04 12:36:37;;;;;;;23.05;16.45;;;4.10;99.90;;;;;;4956658;28;20307;-88
2022/12/04 12:39:17;;;;;;;18.50;16.05;;;4.20;99.90;;;;;;4956352;28;20209;-88
2022/12/04 12:41:50;;;;;;;20.15;16.75;;;4.20;99.90;;;;;;4956075;28;20283;-88
2022/12/04 12:44:24;;;;;;;23.05;16.38;;;4.20;99.90;;;;;;4956335;28;20233;-88
2022/12/04 12:46:58;;;;;;;18.42;15.98;;;4.20;99.90;;;;;;4955934;28;20268;-88
2022/12/04 12:49:33;;;;;;;19.83;16.40;;;4.20;99.90;;;;;;4956309;28;20246;-88
2022/12/04 12:52:11;;;;;;;21.30;16.40;;;4.30;99.90;;;;;;4956181;28;20251;-88
2022/12/04 12:54:43;;;;;;;18.52;15.82;;;4.30;99.90;;;;;;4955983;28;20295;-88
2022/12/04 12:57:16;;;;;;;20.15;15.63;;;4.30;99.90;;;;;;4955933;28;20250;-88
2022/12/04 12:59:49;;;;;;;21.58;16.58;;;4.30;99.90;;;;;;4956220;28;20264;-88
2022/12/04 13:02:26;;;;;;;16.23;14.40;;;4.30;99.90;;;;;;4956101;28;20245;-88
2022/12/04 13:04:59;;;;;;;17.42;15.38;;;4.30;99.90;;;;;;4955887;28;20209;-88
2022/12/04 13:07:37;;;;;;;18.60;16.63;;;4.30;99.90;;;;;;4956006;28;20209;-88
2022/12/04 13:10:12;;;;;;;33.30;16.35;;;4.30;99.90;;;;;;4955822;28;20303;-88
2022/12/04 13:12:46;;;;;;;18.83;15.52;;;4.30;99.90;;;;;;4955687;28;20240;-88